createdAt,value
2017-08-26T00:00:59.290Z,13.95
2017-08-26T00:03:27.439Z,13.15
2017-08-26T00:05:55.590Z,13.95
2017-08-26T00:08:23.778Z,13.48
2017-08-26T00:10:51.939Z,14.20
2017-08-26T00:13:20.108Z,13.68
2017-08-26T00:15:48.285Z,13.73
2017-08-26T00:18:17.210Z,13.55
2017-08-26T00:20:45.378Z,13.20
2017-08-26T00:23:13.902Z,13.38
2017-08-26T00:25:42.119Z,15.80
2017-08-26T00:28:11.062Z,14.00
2017-08-26T00:30:39.300Z,14.77
2017-08-26T00:33:07.522Z,18.08
2017-08-26T00:35:35.677Z,17.12
2017-08-26T00:38:03.861Z,17.27
2017-08-26T00:40:32.011Z,15.90
2017-08-26T00:43:00.187Z,16.75
2017-08-26T00:45:28.367Z,16.50
2017-08-26T00:47:56.524Z,17.10
2017-08-26T00:50:24.677Z,15.20
2017-08-26T00:52:52.868Z,16.60
2017-08-26T00:55:21.042Z,17.60
2017-08-26T00:57:49.988Z,16.37
2017-08-26T01:00:18.201Z,16.25
2017-08-26T01:02:46.387Z,18.62
2017-08-26T01:05:14.564Z,18.02
2017-08-26T01:07:42.751Z,18.05
2017-08-26T01:10:10.902Z,18.02
2017-08-26T01:12:39.076Z,16.25
2017-08-26T01:15:07.275Z,19.42
2017-08-26T01:17:35.430Z,15.43
2017-08-26T01:20:03.593Z,15.05
2017-08-26T01:22:31.789Z,14.32
2017-08-26T01:24:59.964Z,13.85
2017-08-26T01:27:28.145Z,13.18
2017-08-26T01:29:56.339Z,12.93
2017-08-26T01:32:24.486Z,13.85
2017-08-26T01:34:52.645Z,12.93
2017-08-26T01:37:20.850Z,13.30
2017-08-26T01:39:49.097Z,13.75
2017-08-26T01:42:17.247Z,13.40
2017-08-26T01:44:45.426Z,13.43
2017-08-26T01:47:13.626Z,13.30
2017-08-26T01:49:41.775Z,14.02
2017-08-26T01:52:09.970Z,13.05
2017-08-26T01:54:38.115Z,12.70
2017-08-26T01:57:06.292Z,13.15
2017-08-26T01:59:34.479Z,13.90
2017-08-26T02:02:02.642Z,12.95
2017-08-26T02:04:30.795Z,13.10
2017-08-26T02:06:58.982Z,12.07
2017-08-26T02:09:27.160Z,13.27
2017-08-26T02:11:55.334Z,12.48
2017-08-26T02:14:23.516Z,12.35
2017-08-26T02:16:51.704Z,12.02
2017-08-26T02:19:19.881Z,11.40
2017-08-26T02:21:48.086Z,12.20
2017-08-26T02:24:16.237Z,13.60
2017-08-26T02:26:44.412Z,12.50
2017-08-26T02:29:12.610Z,11.95
2017-08-26T02:31:40.773Z,12.60
2017-08-26T02:34:08.938Z,13.50
2017-08-26T02:36:37.523Z,13.05
2017-08-26T02:39:05.686Z,12.75
2017-08-26T02:41:33.834Z,13.32
2017-08-26T02:44:02.747Z,12.55
2017-08-26T02:46:30.899Z,11.57
2017-08-26T02:48:59.073Z,13.50
2017-08-26T02:51:27.278Z,12.13
2017-08-26T02:53:55.467Z,11.85
2017-08-26T02:56:23.641Z,11.75
2017-08-26T02:58:52.588Z,10.55
2017-08-26T03:01:20.765Z,11.40
2017-08-26T03:03:48.923Z,11.32
2017-08-26T03:06:17.106Z,11.15
2017-08-26T03:08:45.253Z,10.95
2017-08-26T03:11:13.431Z,10.32
2017-08-26T03:13:41.639Z,11.00
2017-08-26T03:16:09.801Z,10.10
2017-08-26T03:18:37.978Z,10.55
2017-08-26T03:21:06.153Z,10.23
2017-08-26T03:23:34.297Z,9.48
2017-08-26T03:26:02.482Z,10.13
2017-08-26T03:28:30.662Z,11.10
2017-08-26T03:30:58.829Z,9.70
2017-08-26T03:33:27.004Z,10.48
2017-08-26T03:35:55.200Z,10.02
2017-08-26T03:38:23.350Z,10.02
2017-08-26T03:40:51.493Z,9.10
2017-08-26T03:43:19.693Z,9.35
2017-08-26T03:45:47.851Z,8.45
2017-08-26T03:48:16.021Z,10.48
2017-08-26T03:50:44.202Z,8.48
2017-08-26T03:53:12.364Z,9.13
2017-08-26T03:55:40.509Z,9.35
2017-08-26T03:58:08.701Z,10.32
2017-08-26T04:00:36.851Z,9.30
2017-08-26T04:03:05.028Z,10.40
2017-08-26T04:05:33.231Z,9.25
2017-08-26T04:08:01.381Z,9.32
2017-08-26T04:10:29.552Z,9.20
2017-08-26T04:12:57.740Z,9.50
2017-08-26T04:15:25.907Z,9.13
2017-08-26T04:17:54.077Z,9.63
2017-08-26T04:20:22.255Z,9.45
2017-08-26T04:22:50.402Z,8.55
2017-08-26T04:25:18.558Z,9.50
2017-08-26T04:27:46.757Z,8.68
2017-08-26T04:30:14.920Z,8.63
2017-08-26T04:32:43.105Z,9.73
2017-08-26T04:35:11.304Z,8.50
2017-08-26T04:37:39.455Z,9.18
2017-08-26T04:40:07.625Z,8.43
2017-08-26T04:42:35.804Z,8.15
2017-08-26T04:45:03.955Z,8.63
2017-08-26T04:47:32.133Z,9.27
2017-08-26T04:50:00.326Z,8.30
2017-08-26T04:52:28.502Z,8.82
2017-08-26T04:54:56.679Z,8.77
2017-08-26T04:57:24.866Z,8.98
2017-08-26T04:59:53.018Z,8.73
2017-08-26T05:02:21.181Z,8.02
2017-08-26T05:04:49.403Z,8.38
2017-08-26T05:07:17.571Z,9.00
2017-08-26T05:09:45.719Z,8.50
2017-08-26T05:12:13.926Z,13.43
2017-08-26T05:14:42.082Z,11.18
2017-08-26T05:17:10.253Z,11.20
2017-08-26T05:19:38.452Z,9.73
2017-08-26T05:22:06.617Z,9.75
2017-08-26T05:24:34.763Z,9.05
2017-08-26T05:27:02.933Z,9.35
2017-08-26T05:29:31.090Z,9.20
2017-08-26T05:32:00.028Z,10.07
2017-08-26T05:34:28.224Z,9.13
2017-08-26T05:36:56.421Z,8.55
2017-08-26T05:39:24.593Z,8.88
2017-08-26T05:41:52.880Z,8.98
2017-08-26T05:44:21.035Z,8.82
2017-08-26T05:46:49.184Z,8.70
2017-08-26T05:49:17.366Z,9.43
2017-08-26T05:51:45.535Z,8.70
2017-08-26T05:54:13.711Z,8.10
2017-08-26T05:56:41.886Z,8.18
2017-08-26T05:59:10.030Z,8.07
2017-08-26T06:01:38.198Z,7.80
2017-08-26T06:04:06.376Z,7.72
2017-08-26T06:06:34.522Z,6.90
2017-08-26T06:09:02.666Z,7.97
2017-08-26T06:11:30.866Z,6.57
2017-08-26T06:13:59.010Z,6.70
2017-08-26T06:16:27.175Z,8.10
2017-08-26T06:18:56.125Z,6.43
2017-08-26T06:21:24.272Z,6.68
2017-08-26T06:23:52.449Z,6.30
2017-08-26T06:26:20.629Z,6.15
2017-08-26T06:28:48.796Z,6.62
2017-08-26T06:31:16.942Z,5.90
2017-08-26T06:33:45.133Z,6.60
2017-08-26T06:36:13.283Z,5.57
2017-08-26T06:38:41.430Z,5.57
2017-08-26T06:41:09.602Z,4.95
2017-08-26T06:43:37.768Z,5.22
2017-08-26T06:46:05.933Z,5.50
2017-08-26T06:48:34.114Z,5.05
2017-08-26T06:51:02.266Z,4.28
2017-08-26T06:53:30.410Z,4.65
2017-08-26T06:55:58.605Z,5.07
2017-08-26T06:58:26.780Z,5.18
2017-08-26T07:00:54.935Z,4.80
2017-08-26T07:03:23.137Z,4.57
2017-08-26T07:05:51.306Z,3.87
2017-08-26T07:08:19.464Z,4.30
2017-08-26T07:10:47.661Z,4.43
2017-08-26T07:13:15.812Z,3.90
2017-08-26T07:15:44.027Z,4.05
2017-08-26T07:18:12.202Z,3.90
2017-08-26T07:20:40.360Z,3.60
2017-08-26T07:23:08.536Z,3.05
2017-08-26T07:25:36.731Z,2.92
2017-08-26T07:28:04.894Z,2.90
2017-08-26T07:30:33.057Z,2.90
2017-08-26T07:33:01.227Z,3.17
2017-08-26T07:35:29.386Z,2.60
2017-08-26T07:37:58.298Z,2.85
2017-08-26T07:40:26.497Z,2.72
2017-08-26T07:42:54.668Z,2.97
2017-08-26T07:45:22.815Z,2.53
2017-08-26T07:47:50.986Z,2.87
2017-08-26T07:50:19.149Z,2.60
2017-08-26T07:52:47.313Z,2.67
2017-08-26T07:55:15.487Z,3.28
2017-08-26T07:57:43.635Z,3.15
2017-08-26T08:00:11.828Z,2.47
2017-08-26T08:02:40.004Z,2.37
2017-08-26T08:05:08.158Z,2.60
2017-08-26T08:07:36.308Z,2.72
2017-08-26T08:10:04.515Z,2.50
2017-08-26T08:12:32.688Z,2.60
2017-08-26T08:15:00.840Z,2.80
2017-08-26T08:17:29.038Z,3.13
2017-08-26T08:19:57.188Z,3.17
2017-08-26T08:22:25.354Z,3.23
2017-08-26T08:24:53.529Z,2.80
2017-08-26T08:27:21.697Z,2.67
2017-08-26T08:29:49.865Z,2.93
2017-08-26T08:32:18.065Z,3.10
2017-08-26T08:34:46.215Z,2.63
2017-08-26T08:37:14.383Z,2.87
2017-08-26T08:39:42.927Z,3.00
2017-08-26T08:42:11.098Z,3.13
2017-08-26T08:44:39.270Z,2.57
2017-08-26T08:47:07.509Z,2.93
2017-08-26T08:49:35.663Z,2.70
2017-08-26T08:52:03.821Z,2.87
2017-08-26T08:54:32.004Z,3.30
2017-08-26T08:57:00.165Z,2.80
2017-08-26T08:59:28.307Z,2.90
2017-08-26T09:01:56.507Z,3.00
2017-08-26T09:04:25.429Z,3.10
2017-08-26T09:06:53.591Z,2.83
2017-08-26T09:09:21.778Z,3.50
2017-08-26T09:11:49.941Z,2.70
2017-08-26T09:14:18.095Z,2.80
2017-08-26T09:16:46.293Z,3.07
2017-08-26T09:19:14.442Z,3.40
2017-08-26T09:21:42.610Z,3.57
2017-08-26T09:24:10.805Z,3.07
2017-08-26T09:26:38.978Z,3.30
2017-08-26T09:29:07.146Z,3.27
2017-08-26T09:31:35.323Z,3.20
2017-08-26T09:34:03.470Z,3.23
2017-08-26T09:36:31.615Z,3.30
2017-08-26T09:38:59.786Z,3.23
2017-08-26T09:43:55.720Z,2.80
2017-08-26T09:46:23.896Z,3.23
2017-08-26T09:51:19.836Z,3.40
2017-08-26T09:53:48.026Z,3.30
2017-08-26T09:56:16.178Z,2.83
2017-08-26T09:58:44.320Z,3.23
2017-08-26T10:01:12.491Z,2.77
2017-08-26T10:03:40.659Z,4.17
2017-08-26T10:06:08.821Z,2.83
2017-08-26T10:08:37.017Z,2.90
2017-08-26T10:11:05.927Z,3.40
2017-08-26T10:13:34.090Z,3.60
2017-08-26T10:16:02.284Z,3.50
2017-08-26T10:18:30.445Z,4.00
2017-08-26T10:20:58.597Z,3.10
2017-08-26T10:23:26.770Z,3.50
2017-08-26T10:25:54.914Z,2.97
2017-08-26T10:28:23.066Z,2.40
2017-08-26T10:30:51.247Z,2.43
2017-08-26T10:33:19.432Z,2.80
2017-08-26T10:35:47.592Z,3.30
2017-08-26T10:38:15.790Z,3.20
2017-08-26T10:40:43.954Z,2.47
2017-08-26T10:43:12.103Z,3.10
2017-08-26T10:45:41.166Z,2.73
2017-08-26T10:48:09.330Z,3.07
2017-08-26T10:50:37.496Z,2.50
2017-08-26T10:53:05.678Z,2.67
2017-08-26T10:55:33.823Z,3.63
2017-08-26T10:58:01.971Z,2.80
2017-08-26T11:00:30.159Z,3.00
2017-08-26T11:02:58.331Z,3.70
2017-08-26T11:05:26.496Z,3.37
2017-08-26T11:07:54.666Z,3.47
2017-08-26T11:10:22.848Z,3.13
2017-08-26T11:12:51.018Z,3.50
2017-08-26T11:15:19.320Z,3.53
2017-08-26T11:17:47.474Z,4.00
2017-08-26T11:20:15.689Z,4.00
2017-08-26T11:22:43.879Z,3.20
2017-08-26T11:25:12.467Z,3.43
2017-08-26T11:27:40.641Z,3.40
2017-08-26T11:30:08.856Z,3.90
2017-08-26T11:32:37.022Z,3.73
2017-08-26T11:35:05.171Z,3.37
2017-08-26T11:37:33.365Z,3.43
2017-08-26T11:40:01.534Z,3.30
2017-08-26T11:42:29.688Z,4.07
2017-08-26T11:44:57.888Z,3.23
2017-08-26T11:47:26.039Z,3.70
2017-08-26T11:49:54.191Z,3.73
2017-08-26T11:52:22.371Z,4.03
2017-08-26T11:54:50.537Z,3.33
2017-08-26T11:57:18.686Z,3.67
2017-08-26T11:59:46.862Z,3.70
2017-08-26T12:02:15.024Z,3.90
2017-08-26T12:04:43.184Z,3.53
2017-08-26T12:07:11.362Z,3.87
2017-08-26T12:09:39.528Z,3.50
2017-08-26T12:12:07.698Z,4.33
2017-08-26T12:14:35.905Z,3.30
2017-08-26T12:17:04.076Z,4.30
2017-08-26T12:19:32.217Z,3.43
2017-08-26T12:22:00.399Z,4.00
2017-08-26T12:24:28.553Z,3.83
2017-08-26T12:26:56.722Z,4.07
2017-08-26T12:29:24.918Z,3.67
2017-08-26T12:31:53.852Z,4.00
2017-08-26T12:34:22.020Z,4.23
2017-08-26T12:36:50.216Z,4.27
2017-08-26T12:39:18.368Z,3.97
2017-08-26T12:41:46.513Z,3.67
2017-08-26T12:44:14.688Z,3.90
2017-08-26T12:46:42.838Z,4.40
2017-08-26T12:49:11.023Z,4.60
2017-08-26T12:51:39.220Z,4.50
2017-08-26T12:54:07.383Z,3.72
2017-08-26T12:56:35.602Z,3.95
2017-08-26T12:59:03.801Z,4.03
2017-08-26T13:01:31.974Z,4.53
2017-08-26T13:04:00.134Z,4.40
2017-08-26T13:06:29.550Z,4.90
2017-08-26T13:08:57.725Z,4.00
2017-08-26T13:11:25.889Z,4.20
2017-08-26T13:13:54.119Z,4.50
2017-08-26T13:16:22.302Z,4.60
2017-08-26T13:18:50.478Z,4.33
2017-08-26T13:21:18.678Z,4.37
2017-08-26T13:23:46.839Z,4.00
2017-08-26T13:26:15.005Z,3.97
2017-08-26T13:28:43.196Z,3.70
2017-08-26T13:31:11.347Z,4.50
2017-08-26T13:33:39.521Z,3.78
2017-08-26T13:36:07.732Z,3.70
2017-08-26T13:38:35.895Z,3.87
2017-08-26T13:41:04.066Z,3.05
2017-08-26T13:43:32.250Z,3.28
2017-08-26T13:46:00.417Z,4.60
2017-08-26T13:48:28.592Z,4.25
2017-08-26T13:50:56.789Z,4.07
2017-08-26T13:53:24.964Z,3.62
2017-08-26T13:55:53.115Z,3.80
2017-08-26T13:58:21.295Z,3.60
2017-08-26T14:00:49.488Z,4.65
2017-08-26T14:03:17.639Z,4.15
2017-08-26T14:05:45.822Z,4.30
2017-08-26T14:08:13.983Z,3.95
2017-08-26T14:10:42.137Z,3.53
2017-08-26T14:13:10.337Z,4.78
2017-08-26T14:15:38.517Z,4.30
2017-08-26T14:18:06.693Z,4.60
2017-08-26T14:20:34.871Z,4.10
2017-08-26T14:23:03.046Z,4.70
2017-08-26T14:25:31.197Z,4.10
2017-08-26T14:27:59.393Z,4.72
2017-08-26T14:30:27.579Z,4.55
2017-08-26T14:32:55.755Z,4.35
2017-08-26T14:35:23.938Z,4.82
2017-08-26T14:37:52.107Z,5.43
2017-08-26T14:40:20.256Z,4.93
2017-08-26T14:42:48.434Z,5.05
2017-08-26T14:45:16.605Z,7.28
2017-08-26T14:47:44.779Z,7.70
2017-08-26T14:50:12.979Z,5.28
2017-08-26T14:52:41.150Z,4.75
2017-08-26T14:55:09.340Z,4.45
2017-08-26T14:57:37.541Z,4.82
2017-08-26T15:00:05.703Z,4.82
2017-08-26T15:02:33.855Z,4.70
2017-08-26T15:05:02.039Z,5.15
2017-08-26T15:07:30.220Z,4.45
2017-08-26T15:09:58.393Z,4.30
2017-08-26T15:12:27.347Z,4.60
2017-08-26T15:14:55.507Z,4.75
2017-08-26T15:17:23.675Z,4.85
2017-08-26T15:19:52.623Z,4.20
2017-08-26T15:22:20.791Z,5.22
2017-08-26T15:24:48.962Z,4.55
2017-08-26T15:27:17.147Z,4.50
2017-08-26T15:29:45.294Z,5.00
2017-08-26T15:32:13.466Z,4.90
2017-08-26T15:34:41.658Z,4.60
2017-08-26T15:37:09.810Z,5.15
2017-08-26T15:39:37.963Z,4.95
2017-08-26T15:42:06.156Z,4.45
2017-08-26T15:44:34.322Z,5.55
2017-08-26T15:47:02.473Z,5.10
2017-08-26T15:49:30.671Z,5.50
2017-08-26T15:51:59.602Z,4.93
2017-08-26T15:54:27.766Z,5.55
2017-08-26T15:56:55.962Z,5.32
2017-08-26T15:59:24.130Z,4.90
2017-08-26T16:01:52.402Z,5.07
2017-08-26T16:04:20.594Z,5.15
2017-08-26T16:06:48.758Z,4.82
2017-08-26T16:09:16.910Z,4.95
2017-08-26T16:11:45.086Z,5.45
2017-08-26T16:14:13.235Z,5.30
2017-08-26T16:16:41.400Z,5.25
2017-08-26T16:19:09.623Z,5.05
2017-08-26T16:21:37.791Z,5.12
2017-08-26T16:24:05.946Z,6.35
2017-08-26T16:26:34.130Z,5.75
2017-08-26T16:29:02.294Z,6.20
2017-08-26T16:31:30.442Z,6.60
2017-08-26T16:33:58.630Z,5.70
2017-08-26T16:36:26.787Z,5.90
2017-08-26T16:38:54.967Z,5.55
2017-08-26T16:41:23.910Z,6.20
2017-08-26T16:43:52.064Z,5.50
2017-08-26T16:46:20.222Z,5.15
2017-08-26T16:48:48.417Z,5.32
2017-08-26T16:51:16.592Z,6.32
2017-08-26T16:53:44.748Z,5.62
2017-08-26T16:56:12.950Z,7.75
2017-08-26T16:58:41.126Z,6.47
2017-08-26T17:01:09.313Z,6.15
2017-08-26T17:03:37.518Z,10.88
2017-08-26T17:06:05.681Z,9.10
2017-08-26T17:08:33.836Z,8.70
2017-08-26T17:11:02.028Z,7.72
2017-08-26T17:13:30.179Z,7.40
2017-08-26T17:15:58.322Z,6.50
2017-08-26T17:18:26.522Z,7.10
2017-08-26T17:20:54.681Z,7.07
2017-08-26T17:23:22.855Z,7.75
2017-08-26T17:25:51.049Z,7.20
2017-08-26T17:28:19.201Z,9.05
2017-08-26T17:30:47.347Z,7.80
2017-08-26T17:33:15.522Z,8.98
2017-08-26T17:35:43.751Z,8.07
2017-08-26T17:38:11.926Z,7.45
2017-08-26T17:40:40.142Z,7.25
2017-08-26T17:43:08.291Z,7.25
2017-08-26T17:45:36.464Z,7.60
2017-08-26T17:48:04.646Z,7.32
2017-08-26T17:50:32.792Z,6.72
2017-08-26T17:53:00.945Z,7.10
2017-08-26T17:55:29.127Z,8.23
2017-08-26T17:57:57.275Z,7.70
2017-08-26T18:00:25.435Z,8.07
2017-08-26T18:02:53.615Z,7.32
2017-08-26T18:05:21.775Z,7.43
2017-08-26T18:07:49.953Z,7.57
2017-08-26T18:10:18.131Z,7.40
2017-08-26T18:12:46.273Z,7.85
2017-08-26T18:15:14.419Z,8.00
2017-08-26T18:17:42.595Z,8.18
2017-08-26T18:20:10.754Z,7.68
2017-08-26T18:22:38.906Z,7.53
2017-08-26T18:25:07.137Z,7.47
2017-08-26T18:27:35.292Z,6.95
2017-08-26T18:30:03.458Z,8.05
2017-08-26T18:32:31.636Z,7.87
2017-08-26T18:34:59.800Z,7.60
2017-08-26T18:37:27.957Z,7.55
2017-08-26T18:39:56.150Z,7.15
2017-08-26T18:42:24.325Z,6.15
2017-08-26T18:44:52.534Z,6.65
2017-08-26T18:47:20.724Z,5.60
2017-08-26T18:49:48.897Z,7.07
2017-08-26T18:52:17.045Z,7.43
2017-08-26T18:54:45.226Z,6.97
2017-08-26T18:57:13.393Z,6.22
2017-08-26T18:59:41.539Z,5.95
2017-08-26T19:02:09.738Z,6.65
2017-08-26T19:04:37.889Z,7.12
2017-08-26T19:07:06.061Z,7.37
2017-08-26T19:09:35.028Z,7.22
2017-08-26T19:12:03.204Z,6.90
2017-08-26T19:14:31.374Z,7.87
2017-08-26T19:16:59.562Z,6.95
2017-08-26T19:19:27.730Z,6.62
2017-08-26T19:21:55.895Z,6.60
2017-08-26T19:24:24.067Z,7.50
2017-08-26T19:26:52.228Z,7.40
2017-08-26T19:29:20.396Z,8.10
2017-08-26T19:31:48.585Z,7.62
2017-08-26T19:34:16.729Z,7.95
2017-08-26T19:36:44.892Z,7.57
2017-08-26T19:39:13.064Z,7.47
2017-08-26T19:41:41.230Z,7.20
2017-08-26T19:44:09.400Z,7.85
2017-08-26T19:46:37.590Z,7.60
2017-08-26T19:49:05.753Z,7.90
2017-08-26T19:51:33.921Z,7.53
2017-08-26T19:54:02.118Z,6.87
2017-08-26T19:56:30.282Z,7.97
2017-08-26T19:58:58.433Z,7.57
2017-08-26T20:01:26.617Z,6.97
2017-08-26T20:03:54.785Z,7.03
2017-08-26T20:06:22.934Z,6.20
2017-08-26T20:08:51.478Z,6.65
2017-08-26T20:11:19.623Z,6.05
2017-08-26T20:13:47.794Z,6.15
2017-08-26T20:16:15.983Z,6.68
2017-08-26T20:18:44.136Z,6.70
2017-08-26T20:21:12.308Z,6.80
2017-08-26T20:23:40.490Z,6.25
2017-08-26T20:26:08.668Z,6.50
2017-08-26T20:28:37.579Z,7.07
2017-08-26T20:31:05.769Z,7.60
2017-08-26T20:33:33.933Z,7.65
2017-08-26T20:36:02.078Z,8.70
2017-08-26T20:38:30.310Z,7.82
2017-08-26T20:40:58.481Z,8.25
2017-08-26T20:43:26.626Z,9.02
2017-08-26T20:45:54.822Z,10.07
2017-08-26T20:48:22.974Z,12.43
2017-08-26T20:50:51.123Z,14.35
2017-08-26T20:53:19.326Z,15.43
2017-08-26T20:55:47.501Z,10.65
2017-08-26T20:58:15.656Z,12.65
2017-08-26T21:00:43.852Z,10.30
2017-08-26T21:03:12.026Z,11.07
2017-08-26T21:05:40.182Z,10.30
2017-08-26T21:08:08.382Z,10.57
2017-08-26T21:10:36.535Z,10.23
2017-08-26T21:13:04.713Z,12.77
2017-08-26T21:15:32.893Z,10.65
2017-08-26T21:18:01.051Z,10.68
2017-08-26T21:20:29.224Z,13.55
2017-08-26T21:22:57.406Z,13.85
2017-08-26T21:25:25.578Z,9.07
2017-08-26T21:27:54.491Z,8.90
2017-08-26T21:30:22.690Z,8.80
2017-08-26T21:32:50.842Z,8.45
2017-08-26T21:38:50.476Z,7.95
2017-08-26T21:41:18.646Z,8.68
2017-08-26T21:43:46.795Z,7.85
2017-08-26T21:46:15.734Z,7.75
2017-08-26T21:48:43.910Z,7.22
2017-08-26T21:51:12.053Z,7.90
2017-08-26T21:53:40.257Z,6.80
2017-08-26T21:56:08.410Z,8.73
2017-08-26T21:58:36.578Z,7.72
2017-08-26T22:01:04.773Z,6.05
2017-08-26T22:03:32.914Z,6.93
2017-08-26T22:06:01.827Z,7.70
2017-08-26T22:08:30.008Z,6.95
2017-08-26T22:10:58.150Z,8.52
2017-08-26T22:13:26.301Z,9.63
2017-08-26T22:15:54.767Z,12.10
2017-08-26T22:18:22.927Z,8.70
2017-08-26T22:20:51.100Z,9.80
2017-08-26T22:23:19.299Z,9.15
2017-08-26T22:25:47.469Z,11.60
2017-08-26T22:28:15.643Z,9.70
2017-08-26T22:30:43.823Z,10.65
2017-08-26T22:33:11.975Z,12.35
2017-08-26T22:35:40.121Z,9.98
2017-08-26T22:38:08.306Z,9.40
2017-08-26T22:40:36.450Z,8.65
2017-08-26T22:43:05.209Z,9.18
2017-08-26T22:45:33.393Z,11.70
2017-08-26T22:48:01.552Z,9.48
2017-08-26T22:50:29.701Z,10.80
2017-08-26T22:52:57.881Z,9.35
2017-08-26T22:55:26.032Z,8.25
2017-08-26T22:57:54.183Z,8.43
2017-08-26T23:00:22.370Z,8.23
2017-08-26T23:02:50.523Z,10.65
2017-08-26T23:05:18.690Z,13.18
2017-08-26T23:07:46.879Z,9.30
2017-08-26T23:10:15.028Z,9.93
2017-08-26T23:12:43.213Z,8.00
2017-08-26T23:15:11.413Z,9.68
2017-08-26T23:17:39.587Z,10.23
2017-08-26T23:20:07.760Z,9.65
2017-08-26T23:22:35.938Z,9.32
2017-08-26T23:25:04.102Z,9.13
2017-08-26T23:27:32.284Z,8.63
2017-08-26T23:30:00.470Z,9.63
2017-08-26T23:32:28.622Z,9.25
2017-08-26T23:34:56.777Z,9.80
2017-08-26T23:37:24.972Z,8.95
2017-08-26T23:39:53.173Z,9.38
2017-08-26T23:42:21.347Z,9.30
2017-08-26T23:44:49.541Z,9.13
2017-08-26T23:47:17.712Z,8.25
2017-08-26T23:49:45.857Z,8.80
2017-08-26T23:52:15.114Z,8.90
2017-08-26T23:54:43.277Z,8.65
2017-08-26T23:57:11.457Z,8.85
2017-08-26T23:59:39.646Z,7.62
